Time;durP1;ratioP1;P1;durP2;ratioP2;P2;SDS_P1;SDS_P2;PMS_P1;PMS_P2;Temp;Humidity;BMP_temperature;BMP_pressure;BME280_temperature;BME280_humidity;BME280_pressure;Samples;Min_cycle;Max_cycle;Signal;HPM_P1;HPM_P2
2021/09/28 00:01:08;;;;;;;22.70;20.23;;;18.70;99.90;;;;;;5054825;28;20792;-70
2021/09/28 00:03:35;;;;;;;23.00;19.30;;;18.70;99.90;;;;;;5053860;28;20491;-70
2021/09/28 00:06:03;;;;;;;24.37;20.80;;;18.70;99.90;;;;;;5054312;28;20469;-70
2021/09/28 00:08:30;;;;;;;22.90;19.30;;;18.60;99.90;;;;;;5054594;28;20457;-70
2021/09/28 00:10:56;;;;;;;22.10;19.67;;;18.60;99.90;;;;;;5054046;28;20463;-70
2021/09/28 00:13:23;;;;;;;21.30;18.97;;;18.70;99.90;;;;;;5053964;28;20455;-70
2021/09/28 00:15:50;;;;;;;21.83;19.50;;;18.60;99.90;;;;;;5054039;28;20487;-70
2021/09/28 00:18:16;;;;;;;24.77;19.90;;;18.60;99.90;;;;;;5054920;28;20458;-70
2021/09/28 00:20:43;;;;;;;21.53;19.00;;;18.60;99.90;;;;;;5057287;28;20475;-71
2021/09/28 00:23:15;;;;;;;23.77;19.73;;;18.60;99.90;;;;;;5061688;28;20443;-71
2021/09/28 00:25:42;;;;;;;24.60;20.90;;;18.60;99.90;;;;;;5058635;28;20444;-70
2021/09/28 00:28:11;;;;;;;22.53;18.90;;;18.60;99.90;;;;;;5059081;28;20470;-70
2021/09/28 00:30:38;;;;;;;23.53;19.43;;;18.60;99.90;;;;;;5058439;28;20462;-70
2021/09/28 00:33:05;;;;;;;23.67;19.63;;;18.60;99.90;;;;;;5059306;28;20462;-71
2021/09/28 00:35:32;;;;;;;21.40;19.20;;;18.60;99.90;;;;;;5058855;28;20468;-71
2021/09/28 00:38:01;;;;;;;20.60;18.40;;;18.60;99.90;;;;;;5058696;28;20456;-70
2021/09/28 00:40:30;;;;;;;19.03;17.03;;;18.60;99.90;;;;;;5064908;28;20497;-70
2021/09/28 00:42:57;;;;;;;20.63;18.47;;;18.60;99.90;;;;;;5066750;28;20551;-71
2021/09/28 00:45:24;;;;;;;20.97;18.03;;;18.60;99.90;;;;;;5065805;28;20452;-71
2021/09/28 00:47:53;;;;;;;19.33;17.30;;;18.60;99.90;;;;;;5065105;28;20456;-71
2021/09/28 00:50:20;;;;;;;19.27;17.10;;;18.60;99.90;;;;;;5064850;28;20461;-70
2021/09/28 00:52:47;;;;;;;21.23;19.07;;;18.60;99.90;;;;;;5062909;28;20457;-71
2021/09/28 00:55:15;;;;;;;22.50;17.20;;;18.60;99.90;;;;;;5062366;28;20451;-68
2021/09/28 00:57:43;;;;;;;19.37;16.93;;;18.60;99.90;;;;;;5066080;28;20473;-71
2021/09/28 01:00:11;;;;;;;20.77;16.70;;;18.60;99.90;;;;;;5065109;28;20484;-71
2021/09/28 01:02:39;;;;;;;19.20;16.50;;;18.60;99.90;;;;;;5064225;28;20467;-71
2021/09/28 01:05:07;;;;;;;17.67;15.77;;;18.70;99.90;;;;;;5065347;28;20925;-71
2021/09/28 01:07:34;;;;;;;19.67;16.70;;;18.70;99.90;;;;;;5065450;28;20933;-70
2021/09/28 01:10:01;;;;;;;20.50;17.83;;;18.70;99.90;;;;;;5065734;28;20956;-71
2021/09/28 01:12:27;;;;;;;19.80;17.47;;;18.70;99.90;;;;;;5064019;28;20464;-71
2021/09/28 01:14:55;;;;;;;17.90;16.00;;;18.70;99.90;;;;;;5059023;28;20469;-71
2021/09/28 01:17:22;;;;;;;20.63;17.27;;;18.70;99.90;;;;;;5057791;28;20453;-71
2021/09/28 01:19:52;;;;;;;22.03;16.80;;;18.80;99.90;;;;;;5057202;28;20510;-71
2021/09/28 01:22:20;;;;;;;20.20;17.50;;;18.80;99.90;;;;;;5057506;28;20512;-70
2021/09/28 01:24:48;;;;;;;19.70;17.60;;;18.80;99.90;;;;;;5057027;28;20459;-70
2021/09/28 01:27:16;;;;;;;21.00;17.97;;;18.80;99.90;;;;;;5056972;28;20947;-71
2021/09/28 01:29:43;;;;;;;19.37;17.07;;;18.80;99.90;;;;;;5057227;28;20459;-71
2021/09/28 01:32:11;;;;;;;23.57;18.90;;;18.70;99.90;;;;;;5056895;28;20471;-70
2021/09/28 01:34:37;;;;;;;20.10;17.07;;;18.70;99.90;;;;;;5056914;28;20541;-70
2021/09/28 01:37:05;;;;;;;23.27;18.17;;;18.70;99.90;;;;;;5057128;28;20463;-70
2021/09/28 01:39:33;;;;;;;17.90;15.57;;;18.70;99.90;;;;;;5056986;28;20808;-70
2021/09/28 01:42:00;;;;;;;18.87;16.10;;;18.70;99.90;;;;;;5056582;28;20455;-70
2021/09/28 01:44:27;;;;;;;18.80;15.77;;;18.70;99.90;;;;;;5056775;28;20463;-70
2021/09/28 01:46:54;;;;;;;18.20;15.90;;;18.80;99.90;;;;;;5056888;28;20456;-70
2021/09/28 01:49:21;;;;;;;17.73;15.20;;;18.80;99.90;;;;;;5056954;28;20456;-70
2021/09/28 01:51:48;;;;;;;20.13;16.07;;;18.80;99.90;;;;;;5056345;28;20792;-70
2021/09/28 01:54:15;;;;;;;17.10;15.33;;;18.80;99.90;;;;;;5056438;28;20466;-70
2021/09/28 01:56:44;;;;;;;17.47;15.60;;;18.80;99.90;;;;;;5056110;28;20491;-70
2021/09/28 01:59:11;;;;;;;17.03;15.00;;;18.70;99.90;;;;;;5056154;28;20981;-70
2021/09/28 02:01:38;;;;;;;16.50;13.93;;;18.70;99.90;;;;;;5055958;28;20476;-70
2021/09/28 02:04:05;;;;;;;15.77;13.83;;;18.60;99.90;;;;;;5056053;28;20456;-70
2021/09/28 02:06:36;;;;;;;15.67;13.97;;;18.60;99.90;;;;;;5055713;28;20964;-70
2021/09/28 02:09:05;;;;;;;17.83;14.70;;;18.60;99.90;;;;;;5055927;28;20463;-69
2021/09/28 02:11:32;;;;;;;16.40;14.20;;;18.60;99.90;;;;;;5055793;28;20458;-70
2021/09/28 02:14:02;;;;;;;17.47;13.63;;;18.50;99.90;;;;;;5055898;28;20862;-69
2021/09/28 02:16:29;;;;;;;19.90;14.83;;;18.50;99.90;;;;;;5055412;28;20490;-70
2021/09/28 02:18:55;;;;;;;15.97;13.70;;;18.50;99.90;;;;;;5055852;28;20464;-70
2021/09/28 02:21:22;;;;;;;15.27;13.67;;;18.50;99.90;;;;;;5055498;28;20489;-71
2021/09/28 02:23:49;;;;;;;18.03;14.20;;;18.40;99.90;;;;;;5055637;28;20460;-70
2021/09/28 02:26:16;;;;;;;16.60;13.33;;;18.40;99.90;;;;;;5055500;28;20459;-70
2021/09/28 02:28:43;;;;;;;14.80;13.30;;;18.40;99.90;;;;;;5055496;28;20471;-70
2021/09/28 02:31:11;;;;;;;16.50;13.60;;;18.40;99.90;;;;;;5055818;28;20455;-70
2021/09/28 02:33:38;;;;;;;15.97;13.40;;;18.40;99.90;;;;;;5055448;28;20467;-70
2021/09/28 02:36:05;;;;;;;13.40;11.93;;;18.30;99.90;;;;;;5054977;28;20463;-70
2021/09/28 02:38:31;;;;;;;14.73;13.10;;;18.30;99.90;;;;;;5055524;28;20455;-70
2021/09/28 02:40:58;;;;;;;15.07;12.70;;;18.30;99.90;;;;;;5055135;28;20490;-70
2021/09/28 02:43:25;;;;;;;14.03;12.50;;;18.30;99.90;;;;;;5054632;28;20455;-70
2021/09/28 02:45:51;;;;;;;16.40;13.27;;;18.20;99.90;;;;;;5055157;28;20755;-70
2021/09/28 02:48:20;;;;;;;14.20;12.77;;;18.30;99.90;;;;;;5055351;28;20440;-71
2021/09/28 02:50:47;;;;;;;15.23;12.70;;;18.20;99.90;;;;;;5054913;28;20455;-70
2021/09/28 02:53:13;;;;;;;13.77;12.37;;;18.20;99.90;;;;;;5055224;28;20465;-70
2021/09/28 02:55:40;;;;;;;15.00;12.60;;;18.20;99.90;;;;;;5054874;28;20463;-70
2021/09/28 02:58:07;;;;;;;13.87;12.37;;;18.20;99.90;;;;;;5055548;28;20464;-70
2021/09/28 03:00:34;;;;;;;15.37;13.00;;;18.20;99.90;;;;;;5054704;28;20479;-70
2021/09/28 03:03:01;;;;;;;13.97;11.47;;;18.20;99.90;;;;;;5055465;28;20455;-70
2021/09/28 03:05:29;;;;;;;13.37;11.87;;;18.20;99.90;;;;;;5054827;28;20467;-70
2021/09/28 03:07:56;;;;;;;14.93;13.33;;;18.20;99.90;;;;;;5054521;28;20455;-70
2021/09/28 03:10:22;;;;;;;15.47;11.17;;;18.20;99.90;;;;;;5054894;28;20784;-70
2021/09/28 03:12:49;;;;;;;14.93;11.27;;;18.20;99.90;;;;;;5055003;28;20839;-70
2021/09/28 03:15:16;;;;;;;14.30;11.70;;;18.20;99.90;;;;;;5054648;28;20487;-71
2021/09/28 03:17:43;;;;;;;13.90;11.50;;;18.10;99.90;;;;;;5054998;28;20444;-71
2021/09/28 03:20:10;;;;;;;12.73;11.53;;;18.10;99.90;;;;;;5054689;28;20479;-70
2021/09/28 03:22:39;;;;;;;18.53;11.33;;;18.10;99.90;;;;;;5054805;28;20524;-70
2021/09/28 03:25:07;;;;;;;15.93;11.40;;;18.10;99.90;;;;;;5054965;28;20537;-71
2021/09/28 03:27:34;;;;;;;11.97;10.60;;;18.00;99.90;;;;;;5054666;28;20457;-71
2021/09/28 03:30:00;;;;;;;12.40;11.13;;;18.00;99.90;;;;;;5054614;28;20477;-70
2021/09/28 03:32:27;;;;;;;10.63;9.63;;;17.90;99.90;;;;;;5054439;28;20460;-70
2021/09/28 03:34:54;;;;;;;12.83;10.60;;;17.90;99.90;;;;;;5054318;28;20456;-69
2021/09/28 03:37:21;;;;;;;12.60;10.70;;;17.80;99.90;;;;;;5053985;28;20470;-70
2021/09/28 03:39:53;;;;;;;13.70;10.03;;;17.80;99.90;;;;;;5054422;28;20483;-70
2021/09/28 03:42:20;;;;;;;11.00;9.87;;;17.80;99.90;;;;;;5054479;28;20980;-69
2021/09/28 03:44:47;;;;;;;11.73;9.50;;;17.80;99.90;;;;;;5055074;28;20529;-71
2021/09/28 03:47:14;;;;;;;10.23;9.13;;;17.80;99.90;;;;;;5054372;28;20471;-71
2021/09/28 03:49:40;;;;;;;9.80;8.80;;;17.80;99.90;;;;;;5054151;28;20459;-71
2021/09/28 03:52:08;;;;;;;9.60;8.67;;;17.80;99.90;;;;;;5054354;28;20455;-71
2021/09/28 03:54:35;;;;;;;9.83;8.83;;;17.70;99.90;;;;;;5056684;28;20470;-71
2021/09/28 03:57:03;;;;;;;12.40;8.53;;;17.70;99.90;;;;;;5058805;28;20482;-72
2021/09/28 03:59:30;;;;;;;10.00;7.97;;;17.70;99.90;;;;;;5058716;28;20459;-70
2021/09/28 04:01:56;;;;;;;10.13;8.07;;;17.70;99.90;;;;;;5057979;28;20513;-72
2021/09/28 04:04:23;;;;;;;9.43;8.43;;;17.70;99.90;;;;;;5058152;28;20455;-70
2021/09/28 04:06:50;;;;;;;8.17;6.83;;;17.70;99.90;;;;;;5057791;28;20455;-70
2021/09/28 04:09:17;;;;;;;9.87;7.70;;;17.70;99.90;;;;;;5058106;28;20931;-71
2021/09/28 04:11:45;;;;;;;7.70;6.90;;;17.70;99.90;;;;;;5058251;28;20465;-70
2021/09/28 04:14:15;;;;;;;7.17;6.47;;;17.70;99.90;;;;;;5057631;28;20911;-71
2021/09/28 04:16:42;;;;;;;11.60;6.53;;;17.60;99.90;;;;;;5057456;28;20569;-70
2021/09/28 04:19:09;;;;;;;8.40;7.07;;;17.60;99.90;;;;;;5057866;28;20470;-70
2021/09/28 04:21:38;;;;;;;8.40;7.00;;;17.60;99.90;;;;;;5057659;28;20812;-70
2021/09/28 04:24:06;;;;;;;7.80;7.00;;;17.60;99.90;;;;;;5057588;28;20911;-71
2021/09/28 04:26:33;;;;;;;8.27;6.47;;;17.50;99.90;;;;;;5057508;28;20904;-70
2021/09/28 04:29:00;;;;;;;6.70;5.63;;;17.50;99.90;;;;;;5058250;28;20470;-70
2021/09/28 04:31:28;;;;;;;8.07;5.63;;;17.40;99.90;;;;;;5057587;28;20456;-71
2021/09/28 04:33:55;;;;;;;6.40;5.80;;;17.40;99.90;;;;;;5057388;28;20457;-70
2021/09/28 04:36:23;;;;;;;8.73;6.20;;;17.30;99.90;;;;;;5057581;28;20466;-70
2021/09/28 04:38:50;;;;;;;6.00;4.70;;;17.20;99.90;;;;;;5057545;28;20517;-70
2021/09/28 04:41:17;;;;;;;5.33;4.70;;;17.20;99.90;;;;;;5057359;28;20479;-69
2021/09/28 04:43:43;;;;;;;5.20;4.67;;;17.20;99.90;;;;;;5057679;28;20466;-71
2021/09/28 04:46:10;;;;;;;4.83;4.20;;;17.10;99.90;;;;;;5057186;28;20470;-70
2021/09/28 04:48:38;;;;;;;4.73;4.20;;;17.00;99.90;;;;;;5056919;28;20462;-70
2021/09/28 04:51:05;;;;;;;5.00;3.93;;;17.10;99.90;;;;;;5057487;28;20462;-70
2021/09/28 04:53:31;;;;;;;5.30;4.00;;;17.10;99.90;;;;;;5057355;28;20459;-70
2021/09/28 04:55:58;;;;;;;6.73;3.70;;;17.00;99.90;;;;;;5057468;28;20459;-71
2021/09/28 04:58:26;;;;;;;8.00;5.10;;;17.00;99.90;;;;;;5056751;28;20911;-70
2021/09/28 05:00:53;;;;;;;5.20;4.23;;;16.90;99.90;;;;;;5057189;28;20498;-70
2021/09/28 05:03:20;;;;;;;3.67;3.33;;;17.00;99.90;;;;;;5057143;28;20456;-70
2021/09/28 05:05:48;;;;;;;3.70;2.90;;;17.00;99.90;;;;;;5056291;28;20775;-70
2021/09/28 05:08:15;;;;;;;4.80;3.10;;;16.90;99.90;;;;;;5056919;28;20943;-70
2021/09/28 05:10:42;;;;;;;6.57;3.57;;;16.90;99.90;;;;;;5057072;28;20783;-70
2021/09/28 05:13:09;;;;;;;4.13;3.50;;;16.90;99.90;;;;;;5057030;28;20464;-70
2021/09/28 05:15:35;;;;;;;7.23;3.40;;;16.90;99.90;;;;;;5056668;28;20590;-70
2021/09/28 05:18:02;;;;;;;4.63;3.13;;;16.90;99.90;;;;;;5056680;28;20466;-71
2021/09/28 05:20:29;;;;;;;3.03;2.73;;;16.80;99.90;;;;;;5056896;28;20534;-71
2021/09/28 05:22:57;;;;;;;10.90;3.30;;;16.80;99.90;;;;;;5056724;28;20855;-71
2021/09/28 05:25:25;;;;;;;2.80;2.60;;;16.70;99.90;;;;;;5056429;28;20466;-70
2021/09/28 05:27:52;;;;;;;5.77;3.07;;;16.60;99.90;;;;;;5056550;28;20503;-70
2021/09/28 05:30:19;;;;;;;3.87;2.57;;;16.50;99.90;;;;;;5056864;28;20554;-70
2021/09/28 05:32:46;;;;;;;5.10;2.70;;;16.50;99.90;;;;;;5056463;28;20460;-70
2021/09/28 05:35:13;;;;;;;3.10;2.70;;;16.50;99.90;;;;;;5056097;28;20463;-70
2021/09/28 05:37:40;;;;;;;3.63;2.73;;;16.50;99.90;;;;;;5056184;28;20456;-70
2021/09/28 05:40:09;;;;;;;3.90;3.00;;;16.40;99.90;;;;;;5056067;28;20471;-70
2021/09/28 05:42:35;;;;;;;2.47;2.27;;;16.40;99.90;;;;;;5055895;28;20480;-71
2021/09/28 05:45:03;;;;;;;5.60;2.30;;;16.40;99.90;;;;;;5056830;28;20509;-70
2021/09/28 05:47:30;;;;;;;2.50;2.30;;;16.40;99.90;;;;;;5056139;28;20464;-70
2021/09/28 05:49:56;;;;;;;3.03;2.43;;;16.50;99.90;;;;;;5056016;28;20473;-70
2021/09/28 05:52:23;;;;;;;2.60;2.40;;;16.50;99.90;;;;;;5056215;28;20455;-70
2021/09/28 05:54:50;;;;;;;2.13;1.93;;;16.50;99.90;;;;;;5056014;28;20517;-70
2021/09/28 05:57:19;;;;;;;4.00;1.87;;;16.60;99.90;;;;;;5055947;28;20451;-70
2021/09/28 05:59:47;;;;;;;5.23;2.47;;;16.60;99.90;;;;;;5055880;28;20823;-70
2021/09/28 06:02:15;;;;;;;2.77;1.97;;;16.60;99.90;;;;;;5055831;28;20479;-70
2021/09/28 06:04:42;;;;;;;5.70;2.07;;;16.60;99.90;;;;;;5055863;28;20456;-70
2021/09/28 06:07:09;;;;;;;4.50;1.90;;;16.70;99.90;;;;;;5055503;28;20906;-70
2021/09/28 06:09:41;;;;;;;2.63;1.93;;;16.70;99.90;;;;;;5055799;28;20472;-70
2021/09/28 06:12:09;;;;;;;3.90;1.70;;;16.80;99.90;;;;;;5055120;28;20895;-70
2021/09/28 06:14:38;;;;;;;2.90;1.63;;;16.80;99.90;;;;;;5055793;28;20471;-70
2021/09/28 06:17:05;;;;;;;2.63;1.50;;;16.80;99.90;;;;;;5054616;28;20495;-71
2021/09/28 06:19:32;;;;;;;4.23;1.60;;;16.90;99.90;;;;;;5055709;28;20675;-70
2021/09/28 06:21:59;;;;;;;4.00;1.70;;;16.90;84.10;;;;;;5055369;28;20484;-70
2021/09/28 06:24:26;;;;;;;4.77;2.00;;;16.90;58.20;;;;;;5055830;28;20529;-70
2021/09/28 06:26:53;;;;;;;4.60;1.60;;;16.90;63.60;;;;;;5055891;28;20451;-70
2021/09/28 06:29:19;;;;;;;3.43;1.70;;;16.90;60.40;;;;;;5054486;28;20462;-70
2021/09/28 06:31:47;;;;;;;6.17;2.00;;;16.80;74.40;;;;;;5055966;28;20815;-71
2021/09/28 06:34:14;;;;;;;2.47;1.40;;;16.80;84.10;;;;;;5055774;28;20529;-71
2021/09/28 06:36:41;;;;;;;2.03;1.50;;;16.90;89.10;;;;;;5055362;28;20456;-71
2021/09/28 06:39:08;;;;;;;3.70;1.67;;;16.90;91.00;;;;;;5055671;28;20456;-71
2021/09/28 06:41:35;;;;;;;3.13;1.50;;;17.00;69.90;;;;;;5056315;28;20487;-71
2021/09/28 06:44:01;;;;;;;4.67;1.93;;;17.00;52.00;;;;;;5054715;28;20463;-71
2021/09/28 06:46:28;;;;;;;9.30;1.87;;;17.00;51.70;;;;;;5056981;28;20459;-71
2021/09/28 06:48:56;;;;;;;5.73;2.10;;;17.00;30.00;;;;;;5055938;28;20463;-71
2021/09/28 06:51:23;;;;;;;5.57;2.03;;;17.00;14.10;;;;;;5055341;28;20455;-72
2021/09/28 06:53:50;;;;;;;2.87;1.73;;;17.00;3.50;;;;;;5055524;28;20853;-71
2021/09/28 06:56:20;;;;;;;4.93;1.90;;;17.00;1.00;;;;;;5054858;28;20525;-71
2021/09/28 06:58:47;;;;;;;6.90;2.10;;;17.00;1.00;;;;;;5055915;28;20444;-71
2021/09/28 07:01:14;;;;;;;5.07;2.07;;;17.00;1.00;;;;;;5054515;28;20498;-71
2021/09/28 07:03:42;;;;;;;4.90;1.87;;;17.00;1.00;;;;;;5054811;28;20467;-70
2021/09/28 07:06:10;;;;;;;1.70;1.20;;;16.90;1.00;;;;;;5054541;28;20754;-71
2021/09/28 07:08:36;;;;;;;7.33;2.50;;;16.90;1.00;;;;;;5054363;28;20465;-71
2021/09/28 07:11:03;;;;;;;6.67;2.00;;;16.90;1.00;;;;;;5054815;28;20455;-71
2021/09/28 07:13:30;;;;;;;5.43;1.87;;;17.00;1.00;;;;;;5054592;28;20538;-71
2021/09/28 07:15:57;;;;;;;6.33;1.90;;;17.00;1.00;;;;;;5054351;28;20544;-71
2021/09/28 07:18:23;;;;;;;5.20;1.60;;;17.00;1.00;;;;;;5054686;28;20958;-71
2021/09/28 07:20:50;;;;;;;4.93;2.13;;;17.00;1.00;;;;;;5054699;28;20464;-71
2021/09/28 07:23:19;;;;;;;6.20;1.57;;;17.00;1.00;;;;;;5054148;28;20558;-72
2021/09/28 07:25:46;;;;;;;3.73;1.77;;;17.00;1.00;;;;;;5054819;28;20474;-71
2021/09/28 07:28:13;;;;;;;5.13;1.90;;;17.00;1.00;;;;;;5053886;28;20909;-71
2021/09/28 07:30:40;;;;;;;6.07;2.03;;;17.00;1.00;;;;;;5054164;28;20478;-71
2021/09/28 07:33:06;;;;;;;7.10;2.00;;;16.90;1.00;;;;;;5053953;28;20455;-71
2021/09/28 07:35:33;;;;;;;8.83;2.30;;;16.90;1.00;;;;;;5054487;28;20480;-71
2021/09/28 07:38:00;;;;;;;5.93;1.67;;;16.90;1.00;;;;;;5054412;28;20463;-71
2021/09/28 07:40:28;;;;;;;6.60;2.03;;;16.90;1.00;;;;;;5054568;28;20794;-71
2021/09/28 07:42:55;;;;;;;8.03;1.90;;;16.90;1.00;;;;;;5054192;28;20566;-71
2021/09/28 07:45:22;;;;;;;9.03;1.70;;;16.90;1.00;;;;;;5054330;28;20760;-71
2021/09/28 07:47:50;;;;;;;3.70;2.00;;;16.90;1.00;;;;;;5053924;28;20459;-71
2021/09/28 07:50:18;;;;;;;4.87;1.77;;;16.90;1.00;;;;;;5053996;28;20475;-72
2021/09/28 07:52:44;;;;;;;9.30;1.77;;;16.90;1.00;;;;;;5054306;28;20513;-72
2021/09/28 07:55:12;;;;;;;7.40;3.07;;;16.90;1.00;;;;;;5054012;28;20463;-72
2021/09/28 07:57:40;;;;;;;5.83;1.90;;;17.00;1.00;;;;;;5053849;28;20935;-71
2021/09/28 08:00:09;;;;;;;6.83;2.23;;;17.00;1.00;;;;;;5054308;28;20455;-72
2021/09/28 08:02:38;;;;;;;5.50;2.30;;;17.00;1.00;;;;;;5054155;28;20967;-73
2021/09/28 08:05:05;;;;;;;3.37;1.80;;;17.00;1.00;;;;;;5053658;28;20455;-72
2021/09/28 08:07:32;;;;;;;4.00;1.93;;;17.00;1.00;;;;;;5053788;28;20474;-73
2021/09/28 08:09:59;;;;;;;4.60;2.67;;;16.90;19.10;;;;;;5054616;28;20467;-73
2021/09/28 08:12:26;;;;;;;8.57;2.57;;;16.90;54.60;;;;;;5054407;28;20943;-71
2021/09/28 08:14:54;;;;;;;8.83;2.57;;;16.80;95.60;;;;;;5054308;28;20459;-71
2021/09/28 08:17:21;;;;;;;7.80;2.80;;;16.80;99.90;;;;;;5054169;28;20501;-71
2021/09/28 08:19:49;;;;;;;6.93;2.40;;;16.80;99.90;;;;;;5054068;28;20501;-71
2021/09/28 08:22:17;;;;;;;4.20;2.30;;;16.70;99.90;;;;;;5054087;28;20475;-72
2021/09/28 08:24:44;;;;;;;5.00;2.30;;;16.70;99.90;;;;;;5054140;28;20812;-73
2021/09/28 08:30:02;;;;;;;7.50;2.83;;;16.60;99.90;;;;;;5053641;28;20442;-71
2021/09/28 08:32:29;;;;;;;7.20;2.60;;;16.60;99.90;;;;;;5053700;28;20455;-71
2021/09/28 08:34:57;;;;;;;4.03;2.03;;;16.50;99.90;;;;;;5053690;28;20463;-72
2021/09/28 08:37:26;;;;;;;4.90;2.60;;;16.40;99.90;;;;;;5053335;28;20459;-70
2021/09/28 08:39:53;;;;;;;6.40;2.77;;;16.40;99.90;;;;;;5053754;28;20459;-71
2021/09/28 08:42:20;;;;;;;7.37;3.17;;;16.40;99.90;;;;;;5056261;28;20483;-71
2021/09/28 08:44:47;;;;;;;6.90;2.70;;;16.50;99.90;;;;;;5056930;28;20917;-70
2021/09/28 08:47:15;;;;;;;13.23;2.60;;;16.60;99.90;;;;;;5057232;28;20795;-72
2021/09/28 08:49:42;;;;;;;4.40;2.77;;;16.70;99.90;;;;;;5056999;28;20919;-71
2021/09/28 08:52:10;;;;;;;6.70;3.23;;;16.70;99.90;;;;;;5057217;28;20463;-72
2021/09/28 08:54:37;;;;;;;10.20;3.10;;;16.80;99.90;;;;;;5057882;28;20470;-72
2021/09/28 08:57:04;;;;;;;8.10;2.60;;;16.80;99.90;;;;;;5056979;28;20456;-71
2021/09/28 08:59:41;;;;;;;5.90;2.90;;;16.70;99.90;;;;;;5056888;28;20455;-71
2021/09/28 09:02:09;;;;;;;6.10;2.70;;;16.70;99.90;;;;;;5057017;28;20474;-70
2021/09/28 09:04:37;;;;;;;6.67;2.53;;;16.60;99.90;;;;;;5056789;28;20464;-70
2021/09/28 09:07:31;;;;;;;7.03;2.27;;;16.60;99.90;;;;;;5056964;28;20486;-71
2021/09/28 09:09:58;;;;;;;7.50;2.17;;;16.50;99.90;;;;;;5056984;28;20435;-72
2021/09/28 09:12:32;;;;;;;3.53;2.00;;;16.50;99.90;;;;;;5057112;28;20454;-71
2021/09/28 09:15:18;;;;;;;4.93;2.30;;;16.50;99.90;;;;;;5056225;28;20911;-71
2021/09/28 09:17:45;;;;;;;6.50;2.20;;;16.60;99.90;;;;;;5055662;28;20527;-70
2021/09/28 09:20:35;;;;;;;7.23;2.03;;;16.70;87.00;;;;;;5056351;28;20463;-71
2021/09/28 09:23:17;;;;;;;7.40;2.37;;;16.80;63.20;;;;;;5056650;28;20939;-71
2021/09/28 09:25:45;;;;;;;4.53;1.60;;;16.80;59.70;;;;;;5056188;28;20459;-72
2021/09/28 09:28:30;;;;;;;7.70;2.00;;;16.90;45.10;;;;;;5056685;28;20772;-73
2021/09/28 09:31:10;;;;;;;3.40;2.20;;;17.00;43.90;;;;;;5056286;28;20892;-71
2021/09/28 09:33:38;;;;;;;4.30;2.07;;;17.10;18.30;;;;;;5056598;28;20444;-71
2021/09/28 09:36:07;;;;;;;4.70;2.27;;;17.10;1.00;;;;;;5055895;28;20459;-71
2021/09/28 09:38:42;;;;;;;6.13;2.37;;;17.00;1.00;;;;;;5056400;28;20982;-71
2021/09/28 09:41:09;;;;;;;2.90;2.00;;;17.00;1.00;;;;;;5055962;28;20446;-71
2021/09/28 09:43:36;;;;;;;5.80;2.87;;;16.90;1.00;;;;;;5056161;28;20526;-70
2021/09/28 09:46:11;;;;;;;6.17;2.47;;;17.00;21.20;;;;;;5056265;28;20466;-70
2021/09/28 09:48:39;;;;;;;6.77;2.97;;;17.00;33.70;;;;;;5056103;28;20924;-71
2021/09/28 09:51:10;;;;;;;7.50;3.00;;;17.00;34.50;;;;;;5056050;28;20467;-72
2021/09/28 09:53:48;;;;;;;3.47;3.00;;;17.00;34.70;;;;;;5056170;28;20885;-72
2021/09/28 09:56:15;;;;;;;3.70;3.40;;;17.00;45.80;;;;;;5056137;28;20463;-71
2021/09/28 09:58:42;;;;;;;5.63;3.53;;;17.00;79.00;;;;;;5055728;28;20455;-71
2021/09/28 10:01:09;;;;;;;13.93;4.30;;;17.00;90.10;;;;;;5055817;28;20474;-71
2021/09/28 10:03:38;;;;;;;7.10;3.90;;;17.10;88.60;;;;;;5055618;28;20480;-72
2021/09/28 10:06:07;;;;;;;5.20;3.17;;;17.10;45.80;;;;;;5056003;28;20455;-72
2021/09/28 10:08:34;;;;;;;5.80;3.60;;;17.10;39.50;;;;;;5055714;28;20562;-71
2021/09/28 10:11:02;;;;;;;7.20;3.27;;;17.10;45.70;;;;;;5055668;28;20460;-70
2021/09/28 10:13:48;;;;;;;8.60;3.40;;;17.20;63.60;;;;;;5055370;28;20458;-71
2021/09/28 10:16:35;;;;;;;7.20;3.27;;;17.20;91.90;;;;;;5055296;28;20495;-72
2021/09/28 10:19:03;;;;;;;10.37;3.00;;;17.30;50.60;;;;;;5055698;28;20474;-72
2021/09/28 10:21:43;;;;;;;6.70;3.07;;;17.40;47.80;;;;;;5055222;28;20459;-72
2021/09/28 10:24:29;;;;;;;4.27;2.73;;;17.50;26.20;;;;;;5056491;28;20444;-71
2021/09/28 10:27:28;;;;;;;7.33;2.43;;;17.70;1.00;;;;;;5055397;28;20455;-69
2021/09/28 10:29:56;;;;;;;5.17;2.10;;;17.70;1.00;;;;;;5055883;28;20833;-70
2021/09/28 10:32:45;;;;;;;8.30;2.20;;;17.80;1.00;;;;;;5055492;28;20451;-71
2021/09/28 10:35:14;;;;;;;9.57;2.30;;;17.90;1.00;;;;;;5056365;28;20463;-70
2021/09/28 10:37:57;;;;;;;9.80;2.73;;;17.90;1.00;;;;;;5055692;28;20550;-70
2021/09/28 10:40:47;;;;;;;8.00;3.20;;;18.00;1.00;;;;;;5055058;28;20896;-71
2021/09/28 10:43:30;;;;;;;11.33;3.07;;;18.10;1.00;;;;;;5054982;28;20841;-71
2021/09/28 10:46:00;;;;;;;6.17;2.50;;;18.20;1.00;;;;;;5054951;28;20499;-71
2021/09/28 10:48:44;;;;;;;5.93;2.67;;;18.30;1.00;;;;;;5055021;28;20470;-72
2021/09/28 10:51:14;;;;;;;5.93;2.97;;;18.40;1.00;;;;;;5054958;28;20779;-70
2021/09/28 10:53:47;;;;;;;5.97;2.97;;;18.40;1.00;;;;;;5055032;28;20478;-69
2021/09/28 10:56:14;;;;;;;7.83;2.80;;;18.30;1.00;;;;;;5054647;28;20534;-70
2021/09/28 10:58:53;;;;;;;5.23;2.43;;;18.20;1.00;;;;;;5054921;28;20451;-71
2021/09/28 11:01:21;;;;;;;8.53;3.00;;;18.20;1.00;;;;;;5055209;28;20743;-71
2021/09/28 11:04:00;;;;;;;8.17;3.33;;;18.20;1.00;;;;;;5054224;28;20495;-71
2021/09/28 11:07:03;;;;;;;5.97;3.33;;;18.30;1.00;;;;;;5054955;28;20462;-70
2021/09/28 11:09:51;;;;;;;7.33;2.70;;;18.30;1.00;;;;;;5054311;28;20937;-70
2021/09/28 11:12:19;;;;;;;8.20;2.47;;;18.30;1.00;;;;;;5054629;28;20436;-70
2021/09/28 11:14:46;;;;;;;7.00;2.33;;;18.30;1.00;;;;;;5054448;28;20495;-71
2021/09/28 11:17:18;;;;;;;7.03;2.90;;;18.20;1.00;;;;;;5053917;28;20499;-71
2021/09/28 11:19:46;;;;;;;5.07;2.60;;;18.30;1.00;;;;;;5054474;28;20440;-71
2021/09/28 11:22:19;;;;;;;7.70;2.70;;;18.30;1.00;;;;;;5053882;28;20535;-71
2021/09/28 11:24:48;;;;;;;3.93;2.57;;;18.30;1.00;;;;;;5054474;28;20435;-71
2021/09/28 11:27:15;;;;;;;7.10;2.97;;;18.30;99.90;;;;;;5054698;28;20788;-71
2021/09/28 11:29:42;;;;;;;6.83;2.57;;;18.30;99.90;;;;;;5053952;28;20538;-71
2021/09/28 11:32:10;;;;;;;6.90;2.40;;;18.30;99.90;;;;;;5053818;28;20928;-71
2021/09/28 11:34:40;;;;;;;8.53;2.60;;;18.20;99.90;;;;;;5054289;28;20458;-71
2021/09/28 11:37:07;;;;;;;4.30;2.80;;;18.30;99.90;;;;;;5053880;28;20920;-71
2021/09/28 11:39:41;;;;;;;15.07;2.97;;;18.40;99.90;;;;;;5054399;28;20742;-71
2021/09/28 11:42:11;;;;;;;6.37;2.40;;;18.50;99.90;;;;;;5054246;28;20528;-71
2021/09/28 11:44:40;;;;;;;7.00;3.37;;;18.50;93.00;;;;;;5054404;28;20465;-71
2021/09/28 11:47:21;;;;;;;8.80;2.70;;;18.50;99.90;;;;;;5054093;28;20491;-72
2021/09/28 11:49:51;;;;;;;8.17;2.87;;;18.70;99.90;;;;;;5054103;28;20502;-70
2021/09/28 11:52:18;;;;;;;7.00;2.47;;;18.80;1.00;;;;;;5054348;28;20458;-71
2021/09/28 11:54:46;;;;;;;4.67;2.00;;;18.80;1.00;;;;;;5054186;28;20470;-71
2021/09/28 11:57:16;;;;;;;4.37;2.43;;;18.80;1.00;;;;;;5054033;28;20462;-70
2021/09/28 11:59:44;;;;;;;7.97;2.53;;;18.70;99.90;;;;;;5053796;28;20466;-71
2021/09/28 12:02:13;;;;;;;8.00;2.30;;;18.80;99.90;;;;;;5053976;28;20465;-70
2021/09/28 12:10:37;;;;;;;8.43;2.40;;;19.30;1.00;;;;;;5051034;28;20510;-71
2021/09/28 12:13:23;;;;;;;9.83;2.07;;;19.40;99.90;;;;;;5053761;28;20470;-72
2021/09/28 12:16:09;;;;;;;5.50;2.33;;;19.60;99.90;;;;;;5056216;28;20567;-72
2021/09/28 12:18:37;;;;;;;4.47;2.00;;;19.70;99.90;;;;;;5057597;28;20465;-71
2021/09/28 12:21:20;;;;;;;7.63;2.43;;;19.80;99.90;;;;;;5058020;28;20463;-72
2021/09/28 12:24:07;;;;;;;8.87;2.63;;;20.00;99.90;;;;;;5057985;28;20799;-71
2021/09/28 12:26:35;;;;;;;2.77;1.50;;;20.30;99.90;;;;;;5057618;28;20460;-71
2021/09/28 12:29:12;;;;;;;6.07;2.20;;;20.50;99.90;;;;;;5057767;28;20754;-70
2021/09/28 12:31:40;;;;;;;4.27;2.00;;;20.60;99.90;;;;;;5057885;28;20745;-71
2021/09/28 12:34:06;;;;;;;8.23;2.30;;;20.50;99.90;;;;;;5057270;28;20765;-72
2021/09/28 12:36:33;;;;;;;4.70;2.03;;;20.40;99.90;;;;;;5057644;28;20486;-73
2021/09/28 12:39:17;;;;;;;7.50;1.80;;;20.30;99.90;;;;;;5057147;28;20461;-72
2021/09/28 12:42:03;;;;;;;4.33;1.90;;;20.20;99.90;;;;;;5056986;28;20451;-70
2021/09/28 12:44:31;;;;;;;11.23;2.30;;;20.20;99.90;;;;;;5057197;28;20463;-70
2021/09/28 12:46:58;;;;;;;5.17;1.97;;;20.10;99.90;;;;;;5057313;28;20784;-70
2021/09/28 12:49:29;;;;;;;7.67;2.60;;;20.10;99.90;;;;;;5057480;28;20519;-69
2021/09/28 12:51:56;;;;;;;7.67;2.40;;;20.10;99.90;;;;;;5057201;28;20934;-70
2021/09/28 12:54:22;;;;;;;4.00;1.90;;;20.20;99.90;;;;;;5057296;28;20455;-72
2021/09/28 12:56:50;;;;;;;4.33;1.80;;;20.20;99.90;;;;;;5056654;28;20892;-71
2021/09/28 12:59:18;;;;;;;5.23;2.70;;;20.10;99.90;;;;;;5057238;28;20746;-72
2021/09/28 13:01:45;;;;;;;6.10;2.20;;;20.00;99.90;;;;;;5057116;28;20785;-71